sensor_id;sensor_type;location;lat;lon;timestamp;temperature;humidity
9486;DHT22;4781;48.776;9.200;2023-07-20T00:00:11;20.50;83.50
9486;DHT22;4781;48.776;9.200;2023-07-20T00:02:40;20.40;83.60
9486;DHT22;4781;48.776;9.200;2023-07-20T00:05:08;20.30;83.20
9486;DHT22;4781;48.776;9.200;2023-07-20T00:07:37;20.20;83.20
9486;DHT22;4781;48.776;9.200;2023-07-20T00:10:06;20.20;82.80
9486;DHT22;4781;48.776;9.200;2023-07-20T00:12:34;20.10;82.20
9486;DHT22;4781;48.776;9.200;2023-07-20T00:15:03;20.00;82.80
9486;DHT22;4781;48.776;9.200;2023-07-20T00:17:32;20.00;81.90
9486;DHT22;4781;48.776;9.200;2023-07-20T00:20:00;19.90;82.00
9486;DHT22;4781;48.776;9.200;2023-07-20T00:22:30;19.90;81.90
9486;DHT22;4781;48.776;9.200;2023-07-20T00:24:59;19.80;81.50
9486;DHT22;4781;48.776;9.200;2023-07-20T00:27:27;19.70;81.30
9486;DHT22;4781;48.776;9.200;2023-07-20T00:29:55;19.70;81.00
9486;DHT22;4781;48.776;9.200;2023-07-20T00:32:24;19.70;80.10
9486;DHT22;4781;48.776;9.200;2023-07-20T00:34:52;19.70;80.30
9486;DHT22;4781;48.776;9.200;2023-07-20T00:37:20;19.70;79.90
9486;DHT22;4781;48.776;9.200;2023-07-20T00:39:49;19.60;79.70
9486;DHT22;4781;48.776;9.200;2023-07-20T00:42:18;19.60;79.80
9486;DHT22;4781;48.776;9.200;2023-07-20T00:44:46;19.50;79.70
9486;DHT22;4781;48.776;9.200;2023-07-20T00:47:15;19.50;79.70
9486;DHT22;4781;48.776;9.200;2023-07-20T00:49:43;19.50;79.70
9486;DHT22;4781;48.776;9.200;2023-07-20T00:52:13;19.50;79.70
9486;DHT22;4781;48.776;9.200;2023-07-20T00:54:42;19.50;79.70
9486;DHT22;4781;48.776;9.200;2023-07-20T00:57:13;19.40;79.90
9486;DHT22;4781;48.776;9.200;2023-07-20T00:59:42;19.20;79.60
9486;DHT22;4781;48.776;9.200;2023-07-20T01:02:11;19.30;80.10
9486;DHT22;4781;48.776;9.200;2023-07-20T01:04:39;19.40;80.30
9486;DHT22;4781;48.776;9.200;2023-07-20T01:12:57;19.30;81.00
9486;DHT22;4781;48.776;9.200;2023-07-20T01:15:26;19.30;80.80
9486;DHT22;4781;48.776;9.200;2023-07-20T01:17:54;19.20;81.30
9486;DHT22;4781;48.776;9.200;2023-07-20T01:20:23;19.20;81.60
9486;DHT22;4781;48.776;9.200;2023-07-20T01:31:31;19.10;82.20
9486;DHT22;4781;48.776;9.200;2023-07-20T01:34:04;19.00;82.30
9486;DHT22;4781;48.776;9.200;2023-07-20T01:36:36;19.00;82.10
9486;DHT22;4781;48.776;9.200;2023-07-20T01:39:06;19.00;82.30
9486;DHT22;4781;48.776;9.200;2023-07-20T01:41:36;19.00;82.90
9486;DHT22;4781;48.776;9.200;2023-07-20T01:44:05;18.90;83.40
9486;DHT22;4781;48.776;9.200;2023-07-20T01:46:33;18.80;83.10
9486;DHT22;4781;48.776;9.200;2023-07-20T01:49:02;18.70;83.10
9486;DHT22;4781;48.776;9.200;2023-07-20T01:51:30;18.70;83.50
9486;DHT22;4781;48.776;9.200;2023-07-20T01:53:59;18.60;84.10
9486;DHT22;4781;48.776;9.200;2023-07-20T01:56:27;18.60;83.70
9486;DHT22;4781;48.776;9.200;2023-07-20T01:58:55;18.50;84.30
9486;DHT22;4781;48.776;9.200;2023-07-20T02:01:24;18.60;84.30
9486;DHT22;4781;48.776;9.200;2023-07-20T02:03:54;18.50;84.30
9486;DHT22;4781;48.776;9.200;2023-07-20T02:06:22;18.50;84.30
9486;DHT22;4781;48.776;9.200;2023-07-20T02:08:51;18.90;84.70
9486;DHT22;4781;48.776;9.200;2023-07-20T02:11:19;18.50;84.30
9486;DHT22;4781;48.776;9.200;2023-07-20T02:13:48;18.50;84.90
9486;DHT22;4781;48.776;9.200;2023-07-20T02:16:16;18.50;84.90
9486;DHT22;4781;48.776;9.200;2023-07-20T02:18:44;18.40;85.20
9486;DHT22;4781;48.776;9.200;2023-07-20T02:21:13;18.40;85.60
9486;DHT22;4781;48.776;9.200;2023-07-20T02:23:41;18.40;85.80
9486;DHT22;4781;48.776;9.200;2023-07-20T02:26:10;18.40;85.60
9486;DHT22;4781;48.776;9.200;2023-07-20T02:28:38;18.40;85.80
9486;DHT22;4781;48.776;9.200;2023-07-20T02:31:07;18.40;85.50
9486;DHT22;4781;48.776;9.200;2023-07-20T02:33:36;18.40;85.80
9486;DHT22;4781;48.776;9.200;2023-07-20T02:36:04;18.30;86.00
9486;DHT22;4781;48.776;9.200;2023-07-20T02:38:33;18.20;86.50
9486;DHT22;4781;48.776;9.200;2023-07-20T02:41:01;18.20;86.40
9486;DHT22;4781;48.776;9.200;2023-07-20T02:43:29;18.20;86.70
9486;DHT22;4781;48.776;9.200;2023-07-20T02:45:58;18.10;86.90
9486;DHT22;4781;48.776;9.200;2023-07-20T02:48:26;18.10;86.70
9486;DHT22;4781;48.776;9.200;2023-07-20T02:50:54;18.10;87.00
9486;DHT22;4781;48.776;9.200;2023-07-20T02:53:23;18.10;87.00
9486;DHT22;4781;48.776;9.200;2023-07-20T02:55:51;18.00;87.10
9486;DHT22;4781;48.776;9.200;2023-07-20T02:58:20;18.00;87.30
9486;DHT22;4781;48.776;9.200;2023-07-20T03:00:48;18.00;87.50
9486;DHT22;4781;48.776;9.200;2023-07-20T03:03:16;17.90;87.90
9486;DHT22;4781;48.776;9.200;2023-07-20T03:05:45;17.90;87.90
9486;DHT22;4781;48.776;9.200;2023-07-20T03:08:13;17.80;87.70
9486;DHT22;4781;48.776;9.200;2023-07-20T03:10:42;17.80;88.80
9486;DHT22;4781;48.776;9.200;2023-07-20T03:13:10;17.70;89.10
9486;DHT22;4781;48.776;9.200;2023-07-20T03:15:40;17.70;89.60
9486;DHT22;4781;48.776;9.200;2023-07-20T03:18:09;17.70;89.60
9486;DHT22;4781;48.776;9.200;2023-07-20T03:20:38;17.70;90.20
9486;DHT22;4781;48.776;9.200;2023-07-20T03:23:07;17.60;90.10
9486;DHT22;4781;48.776;9.200;2023-07-20T03:25:35;17.60;90.20
9486;DHT22;4781;48.776;9.200;2023-07-20T03:28:04;17.60;90.40
9486;DHT22;4781;48.776;9.200;2023-07-20T03:30:32;17.60;90.50
9486;DHT22;4781;48.776;9.200;2023-07-20T03:33:00;17.50;90.70
9486;DHT22;4781;48.776;9.200;2023-07-20T03:35:29;17.40;90.60
9486;DHT22;4781;48.776;9.200;2023-07-20T03:37:58;17.50;90.90
9486;DHT22;4781;48.776;9.200;2023-07-20T03:40:26;17.40;90.90
9486;DHT22;4781;48.776;9.200;2023-07-20T03:42:54;17.40;90.90
9486;DHT22;4781;48.776;9.200;2023-07-20T03:45:23;17.40;91.00
9486;DHT22;4781;48.776;9.200;2023-07-20T03:47:51;17.30;91.00
9486;DHT22;4781;48.776;9.200;2023-07-20T03:50:19;17.30;90.80
9486;DHT22;4781;48.776;9.200;2023-07-20T03:52:48;17.30;91.30
9486;DHT22;4781;48.776;9.200;2023-07-20T03:55:16;17.30;91.00
9486;DHT22;4781;48.776;9.200;2023-07-20T03:57:45;17.40;91.00
9486;DHT22;4781;48.776;9.200;2023-07-20T04:00:13;17.40;91.00
9486;DHT22;4781;48.776;9.200;2023-07-20T04:02:43;17.30;91.00
9486;DHT22;4781;48.776;9.200;2023-07-20T04:05:11;17.40;91.10
9486;DHT22;4781;48.776;9.200;2023-07-20T04:07:39;17.40;91.30
9486;DHT22;4781;48.776;9.200;2023-07-20T04:10:08;17.40;91.20
9486;DHT22;4781;48.776;9.200;2023-07-20T04:12:37;17.50;91.20
9486;DHT22;4781;48.776;9.200;2023-07-20T04:15:06;17.40;91.40
9486;DHT22;4781;48.776;9.200;2023-07-20T04:17:35;17.40;91.20
9486;DHT22;4781;48.776;9.200;2023-07-20T04:20:03;17.50;91.30
9486;DHT22;4781;48.776;9.200;2023-07-20T04:22:34;17.50;91.30
9486;DHT22;4781;48.776;9.200;2023-07-20T04:25:03;17.50;91.20
9486;DHT22;4781;48.776;9.200;2023-07-20T04:27:32;17.50;91.00
9486;DHT22;4781;48.776;9.200;2023-07-20T04:30:00;17.60;91.30
9486;DHT22;4781;48.776;9.200;2023-07-20T04:32:30;17.60;91.40
9486;DHT22;4781;48.776;9.200;2023-07-20T04:35:00;17.50;91.60
9486;DHT22;4781;48.776;9.200;2023-07-20T04:37:29;17.60;91.50
9486;DHT22;4781;48.776;9.200;2023-07-20T04:39:57;17.60;91.50
9486;DHT22;4781;48.776;9.200;2023-07-20T04:42:26;17.70;91.60
9486;DHT22;4781;48.776;9.200;2023-07-20T04:44:54;17.70;91.60
9486;DHT22;4781;48.776;9.200;2023-07-20T04:47:23;17.80;91.70
9486;DHT22;4781;48.776;9.200;2023-07-20T04:49:51;17.80;91.60
9486;DHT22;4781;48.776;9.200;2023-07-20T04:52:19;17.90;91.80
9486;DHT22;4781;48.776;9.200;2023-07-20T04:54:48;18.00;91.90
9486;DHT22;4781;48.776;9.200;2023-07-20T04:57:16;18.00;91.80
9486;DHT22;4781;48.776;9.200;2023-07-20T04:59:45;18.00;91.90
9486;DHT22;4781;48.776;9.200;2023-07-20T05:02:13;18.10;91.80
9486;DHT22;4781;48.776;9.200;2023-07-20T05:04:42;18.20;92.00
9486;DHT22;4781;48.776;9.200;2023-07-20T05:07:10;18.30;92.00
9486;DHT22;4781;48.776;9.200;2023-07-20T05:09:38;18.30;92.10
9486;DHT22;4781;48.776;9.200;2023-07-20T05:12:07;18.40;91.90
9486;DHT22;4781;48.776;9.200;2023-07-20T05:14:35;18.50;91.90
9486;DHT22;4781;48.776;9.200;2023-07-20T05:17:04;18.60;92.00
9486;DHT22;4781;48.776;9.200;2023-07-20T05:19:33;18.70;92.00
9486;DHT22;4781;48.776;9.200;2023-07-20T05:22:01;18.70;91.90
9486;DHT22;4781;48.776;9.200;2023-07-20T05:24:30;18.90;91.80
9486;DHT22;4781;48.776;9.200;2023-07-20T05:26:59;18.80;91.80
9486;DHT22;4781;48.776;9.200;2023-07-20T05:29:27;19.00;92.10
9486;DHT22;4781;48.776;9.200;2023-07-20T05:31:56;19.10;91.90
9486;DHT22;4781;48.776;9.200;2023-07-20T05:34:24;19.20;92.10
9486;DHT22;4781;48.776;9.200;2023-07-20T05:36:53;19.40;92.00
9486;DHT22;4781;48.776;9.200;2023-07-20T05:39:22;19.40;91.90
9486;DHT22;4781;48.776;9.200;2023-07-20T05:41:50;19.20;91.30
9486;DHT22;4781;48.776;9.200;2023-07-20T05:44:18;19.50;91.80
9486;DHT22;4781;48.776;9.200;2023-07-20T05:46:47;19.60;91.70
9486;DHT22;4781;48.776;9.200;2023-07-20T05:49:15;19.70;91.80
9486;DHT22;4781;48.776;9.200;2023-07-20T05:51:44;19.70;91.70
9486;DHT22;4781;48.776;9.200;2023-07-20T05:54:13;19.80;91.60
9486;DHT22;4781;48.776;9.200;2023-07-20T05:56:41;19.90;91.70
9486;DHT22;4781;48.776;9.200;2023-07-20T05:59:10;20.00;91.10
9486;DHT22;4781;48.776;9.200;2023-07-20T06:01:38;20.10;90.60
9486;DHT22;4781;48.776;9.200;2023-07-20T06:04:06;20.30;91.40
9486;DHT22;4781;48.776;9.200;2023-07-20T06:06:35;20.40;91.00
9486;DHT22;4781;48.776;9.200;2023-07-20T06:09:03;20.40;91.30
9486;DHT22;4781;48.776;9.200;2023-07-20T06:11:33;20.40;90.90
9486;DHT22;4781;48.776;9.200;2023-07-20T06:14:02;20.40;90.70
9486;DHT22;4781;48.776;9.200;2023-07-20T06:16:30;20.40;90.80
9486;DHT22;4781;48.776;9.200;2023-07-20T06:19:00;20.40;90.80
9486;DHT22;4781;48.776;9.200;2023-07-20T06:21:28;20.50;91.10
9486;DHT22;4781;48.776;9.200;2023-07-20T06:23:56;20.50;90.50
9486;DHT22;4781;48.776;9.200;2023-07-20T06:26:25;20.50;90.70
9486;DHT22;4781;48.776;9.200;2023-07-20T06:28:55;20.50;90.40
9486;DHT22;4781;48.776;9.200;2023-07-20T06:31:23;20.50;90.10
9486;DHT22;4781;48.776;9.200;2023-07-20T06:33:52;20.50;90.20
9486;DHT22;4781;48.776;9.200;2023-07-20T06:36:20;20.50;90.60
9486;DHT22;4781;48.776;9.200;2023-07-20T06:38:49;20.50;90.10
9486;DHT22;4781;48.776;9.200;2023-07-20T06:41:17;20.50;90.50
9486;DHT22;4781;48.776;9.200;2023-07-20T06:43:46;20.60;90.70
9486;DHT22;4781;48.776;9.200;2023-07-20T06:46:15;20.70;90.50
9486;DHT22;4781;48.776;9.200;2023-07-20T06:48:43;20.80;90.50
9486;DHT22;4781;48.776;9.200;2023-07-20T06:51:11;21.00;90.50
9486;DHT22;4781;48.776;9.200;2023-07-20T06:53:40;21.20;90.40
9486;DHT22;4781;48.776;9.200;2023-07-20T06:56:08;21.40;90.30
9486;DHT22;4781;48.776;9.200;2023-07-20T06:58:37;21.60;90.10
9486;DHT22;4781;48.776;9.200;2023-07-20T07:01:07;21.70;89.00
9486;DHT22;4781;48.776;9.200;2023-07-20T07:03:36;21.70;90.00
9486;DHT22;4781;48.776;9.200;2023-07-20T07:06:04;21.80;89.00
9486;DHT22;4781;48.776;9.200;2023-07-20T07:08:32;21.80;88.50
9486;DHT22;4781;48.776;9.200;2023-07-20T07:11:01;21.40;88.80
9486;DHT22;4781;48.776;9.200;2023-07-20T07:13:29;21.50;89.50
9486;DHT22;4781;48.776;9.200;2023-07-20T07:15:58;21.60;90.10
9486;DHT22;4781;48.776;9.200;2023-07-20T07:18:26;21.80;89.60
9486;DHT22;4781;48.776;9.200;2023-07-20T07:20:54;21.90;89.10
9486;DHT22;4781;48.776;9.200;2023-07-20T07:23:23;22.00;90.10
9486;DHT22;4781;48.776;9.200;2023-07-20T07:25:51;22.10;89.10
9486;DHT22;4781;48.776;9.200;2023-07-20T07:28:20;22.20;88.60
9486;DHT22;4781;48.776;9.200;2023-07-20T07:30:48;22.20;88.80
9486;DHT22;4781;48.776;9.200;2023-07-20T07:33:17;22.20;88.30
9486;DHT22;4781;48.776;9.200;2023-07-20T07:35:45;22.20;88.20
9486;DHT22;4781;48.776;9.200;2023-07-20T07:38:14;22.30;88.60
9486;DHT22;4781;48.776;9.200;2023-07-20T07:40:42;22.30;88.10
9486;DHT22;4781;48.776;9.200;2023-07-20T07:43:11;22.40;88.40
9486;DHT22;4781;48.776;9.200;2023-07-20T07:45:40;22.60;88.40
9486;DHT22;4781;48.776;9.200;2023-07-20T07:48:09;22.80;88.30
9486;DHT22;4781;48.776;9.200;2023-07-20T07:50:40;22.90;87.50
9486;DHT22;4781;48.776;9.200;2023-07-20T07:53:09;22.90;86.50
9486;DHT22;4781;48.776;9.200;2023-07-20T07:55:37;22.70;86.10
9486;DHT22;4781;48.776;9.200;2023-07-20T07:58:06;22.80;86.20
9486;DHT22;4781;48.776;9.200;2023-07-20T08:00:35;22.90;86.00
9486;DHT22;4781;48.776;9.200;2023-07-20T08:03:03;23.10;85.90
9486;DHT22;4781;48.776;9.200;2023-07-20T08:05:33;23.30;86.10
9486;DHT22;4781;48.776;9.200;2023-07-20T08:08:05;23.50;85.50
9486;DHT22;4781;48.776;9.200;2023-07-20T08:10:35;23.70;84.30
9486;DHT22;4781;48.776;9.200;2023-07-20T08:13:03;23.60;84.20
9486;DHT22;4781;48.776;9.200;2023-07-20T08:15:31;23.60;85.10
9486;DHT22;4781;48.776;9.200;2023-07-20T08:18:00;23.60;82.20
9486;DHT22;4781;48.776;9.200;2023-07-20T08:20:28;23.40;83.20
9486;DHT22;4781;48.776;9.200;2023-07-20T08:22:58;23.40;83.80
9486;DHT22;4781;48.776;9.200;2023-07-20T08:25:27;23.30;82.70
9486;DHT22;4781;48.776;9.200;2023-07-20T08:27:55;23.40;82.80
9486;DHT22;4781;48.776;9.200;2023-07-20T08:30:23;23.30;82.50
9486;DHT22;4781;48.776;9.200;2023-07-20T08:32:52;23.10;81.90
9486;DHT22;4781;48.776;9.200;2023-07-20T08:35:20;22.90;81.60
9486;DHT22;4781;48.776;9.200;2023-07-20T08:37:48;22.90;82.70
9486;DHT22;4781;48.776;9.200;2023-07-20T08:40:17;23.00;82.90
9486;DHT22;4781;48.776;9.200;2023-07-20T08:42:46;23.20;83.90
9486;DHT22;4781;48.776;9.200;2023-07-20T08:45:16;23.30;84.30
9486;DHT22;4781;48.776;9.200;2023-07-20T08:47:45;23.20;81.90
9486;DHT22;4781;48.776;9.200;2023-07-20T08:50:16;23.00;83.20
9486;DHT22;4781;48.776;9.200;2023-07-20T08:52:45;23.40;84.40
9486;DHT22;4781;48.776;9.200;2023-07-20T08:55:14;23.70;82.20
9486;DHT22;4781;48.776;9.200;2023-07-20T08:57:44;23.80;82.00
9486;DHT22;4781;48.776;9.200;2023-07-20T09:00:14;23.70;80.40
9486;DHT22;4781;48.776;9.200;2023-07-20T09:02:45;23.40;80.60
9486;DHT22;4781;48.776;9.200;2023-07-20T09:05:14;23.10;78.80
9486;DHT22;4781;48.776;9.200;2023-07-20T09:07:43;23.20;80.00
9486;DHT22;4781;48.776;9.200;2023-07-20T09:10:12;23.50;80.10
9486;DHT22;4781;48.776;9.200;2023-07-20T09:12:42;23.60;79.80
9486;DHT22;4781;48.776;9.200;2023-07-20T09:15:12;23.80;79.30
9486;DHT22;4781;48.776;9.200;2023-07-20T09:17:48;24.00;80.60
9486;DHT22;4781;48.776;9.200;2023-07-20T09:20:18;24.20;78.80
9486;DHT22;4781;48.776;9.200;2023-07-20T09:22:47;24.20;79.70
9486;DHT22;4781;48.776;9.200;2023-07-20T09:25:17;24.00;79.40
9486;DHT22;4781;48.776;9.200;2023-07-20T09:27:48;24.10;79.50
9486;DHT22;4781;48.776;9.200;2023-07-20T09:30:16;24.10;79.70
9486;DHT22;4781;48.776;9.200;2023-07-20T09:32:46;24.30;80.30
9486;DHT22;4781;48.776;9.200;2023-07-20T09:35:21;24.50;79.70
9486;DHT22;4781;48.776;9.200;2023-07-20T09:38:02;24.80;79.30
9486;DHT22;4781;48.776;9.200;2023-07-20T09:40:27;24.70;78.20
9486;DHT22;4781;48.776;9.200;2023-07-20T09:42:56;24.50;78.50
9486;DHT22;4781;48.776;9.200;2023-07-20T09:45:33;24.20;76.80
9486;DHT22;4781;48.776;9.200;2023-07-20T09:48:06;24.30;78.20
9486;DHT22;4781;48.776;9.200;2023-07-20T09:50:43;24.20;77.00
9486;DHT22;4781;48.776;9.200;2023-07-20T09:53:20;24.40;77.90
9486;DHT22;4781;48.776;9.200;2023-07-20T09:55:49;24.50;76.10
9486;DHT22;4781;48.776;9.200;2023-07-20T09:58:17;24.40;75.80
9486;DHT22;4781;48.776;9.200;2023-07-20T10:00:46;24.50;76.10
9486;DHT22;4781;48.776;9.200;2023-07-20T10:03:22;24.50;76.20
9486;DHT22;4781;48.776;9.200;2023-07-20T10:06:05;24.70;77.00
9486;DHT22;4781;48.776;9.200;2023-07-20T10:08:38;24.60;75.40
9486;DHT22;4781;48.776;9.200;2023-07-20T10:11:08;24.40;73.50
9486;DHT22;4781;48.776;9.200;2023-07-20T10:13:39;24.30;75.10
9486;DHT22;4781;48.776;9.200;2023-07-20T10:16:11;24.40;75.90
9486;DHT22;4781;48.776;9.200;2023-07-20T10:18:53;24.60;76.00
9486;DHT22;4781;48.776;9.200;2023-07-20T10:21:26;24.80;75.40
9486;DHT22;4781;48.776;9.200;2023-07-20T10:26:43;24.50;73.10
9486;DHT22;4781;48.776;9.200;2023-07-20T10:29:12;24.50;72.70
9486;DHT22;4781;48.776;9.200;2023-07-20T10:31:41;24.40;73.30
9486;DHT22;4781;48.776;9.200;2023-07-20T10:34:10;24.40;72.30
9486;DHT22;4781;48.776;9.200;2023-07-20T10:36:44;24.60;73.10
9486;DHT22;4781;48.776;9.200;2023-07-20T10:39:23;24.80;72.80
9486;DHT22;4781;48.776;9.200;2023-07-20T10:42:07;25.10;73.30
9486;DHT22;4781;48.776;9.200;2023-07-20T10:44:39;25.40;71.50
9486;DHT22;4781;48.776;9.200;2023-07-20T10:47:12;25.60;71.90
9486;DHT22;4781;48.776;9.200;2023-07-20T10:50:00;25.60;69.80
9486;DHT22;4781;48.776;9.200;2023-07-20T10:52:41;25.60;71.10
9486;DHT22;4781;48.776;9.200;2023-07-20T10:55:16;25.90;72.40
9486;DHT22;4781;48.776;9.200;2023-07-20T10:58:05;26.10;70.10
9486;DHT22;4781;48.776;9.200;2023-07-20T11:00:36;26.20;69.60
9486;DHT22;4781;48.776;9.200;2023-07-20T11:03:05;26.30;69.60
9486;DHT22;4781;48.776;9.200;2023-07-20T11:05:38;26.30;66.70
9486;DHT22;4781;48.776;9.200;2023-07-20T11:08:11;26.20;69.80
9486;DHT22;4781;48.776;9.200;2023-07-20T11:10:40;26.40;68.70
9486;DHT22;4781;48.776;9.200;2023-07-20T11:13:19;26.60;70.00
9486;DHT22;4781;48.776;9.200;2023-07-20T11:18:28;26.60;66.80
9486;DHT22;4781;48.776;9.200;2023-07-20T11:20:58;26.70;65.90
9486;DHT22;4781;48.776;9.200;2023-07-20T11:23:28;26.80;66.60
9486;DHT22;4781;48.776;9.200;2023-07-20T11:25:57;26.80;65.70
9486;DHT22;4781;48.776;9.200;2023-07-20T11:28:29;26.90;66.00
9486;DHT22;4781;48.776;9.200;2023-07-20T11:30:58;27.00;66.10
9486;DHT22;4781;48.776;9.200;2023-07-20T11:33:26;27.10;63.90
9486;DHT22;4781;48.776;9.200;2023-07-20T11:35:55;27.30;66.60
9486;DHT22;4781;48.776;9.200;2023-07-20T11:38:24;27.40;64.60
9486;DHT22;4781;48.776;9.200;2023-07-20T11:40:52;27.40;66.20
9486;DHT22;4781;48.776;9.200;2023-07-20T11:43:21;27.70;65.30
9486;DHT22;4781;48.776;9.200;2023-07-20T11:45:52;27.70;65.60
9486;DHT22;4781;48.776;9.200;2023-07-20T11:48:20;27.50;63.60
9486;DHT22;4781;48.776;9.200;2023-07-20T11:50:49;27.20;64.30
9486;DHT22;4781;48.776;9.200;2023-07-20T11:53:17;27.00;64.90
9486;DHT22;4781;48.776;9.200;2023-07-20T11:55:47;27.00;64.60
9486;DHT22;4781;48.776;9.200;2023-07-20T11:58:15;27.20;65.50
9486;DHT22;4781;48.776;9.200;2023-07-20T12:00:44;27.30;63.50
9486;DHT22;4781;48.776;9.200;2023-07-20T12:03:13;27.30;64.20
9486;DHT22;4781;48.776;9.200;2023-07-20T12:05:41;27.30;63.90
9486;DHT22;4781;48.776;9.200;2023-07-20T12:08:10;27.50;62.60
9486;DHT22;4781;48.776;9.200;2023-07-20T12:10:40;27.50;61.60
9486;DHT22;4781;48.776;9.200;2023-07-20T12:13:10;27.40;63.00
9486;DHT22;4781;48.776;9.200;2023-07-20T12:15:39;27.60;62.30
9486;DHT22;4781;48.776;9.200;2023-07-20T12:18:08;27.80;62.60
9486;DHT22;4781;48.776;9.200;2023-07-20T12:20:37;27.80;60.20
9486;DHT22;4781;48.776;9.200;2023-07-20T12:23:11;27.80;61.50
9486;DHT22;4781;48.776;9.200;2023-07-20T12:25:46;27.40;59.60
9486;DHT22;4781;48.776;9.200;2023-07-20T12:28:17;27.40;60.80
9486;DHT22;4781;48.776;9.200;2023-07-20T12:30:47;27.40;61.40
9486;DHT22;4781;48.776;9.200;2023-07-20T12:33:17;27.30;60.90
9486;DHT22;4781;48.776;9.200;2023-07-20T12:35:45;27.30;61.20
9486;DHT22;4781;48.776;9.200;2023-07-20T12:38:14;27.20;60.50
9486;DHT22;4781;48.776;9.200;2023-07-20T12:40:43;27.20;61.20
9486;DHT22;4781;48.776;9.200;2023-07-20T12:43:11;27.30;61.90
9486;DHT22;4781;48.776;9.200;2023-07-20T12:45:39;27.20;61.80
9486;DHT22;4781;48.776;9.200;2023-07-20T12:48:09;27.30;62.20
9486;DHT22;4781;48.776;9.200;2023-07-20T12:50:37;27.40;61.90
9486;DHT22;4781;48.776;9.200;2023-07-20T12:53:05;27.70;61.60
9486;DHT22;4781;48.776;9.200;2023-07-20T12:55:34;27.80;62.70
9486;DHT22;4781;48.776;9.200;2023-07-20T12:58:02;28.00;62.30
9486;DHT22;4781;48.776;9.200;2023-07-20T13:00:31;28.10;60.30
9486;DHT22;4781;48.776;9.200;2023-07-20T13:02:59;28.00;59.40
9486;DHT22;4781;48.776;9.200;2023-07-20T13:05:29;27.70;59.00
9486;DHT22;4781;48.776;9.200;2023-07-20T13:07:58;27.60;59.90
9486;DHT22;4781;48.776;9.200;2023-07-20T13:10:27;27.70;59.50
9486;DHT22;4781;48.776;9.200;2023-07-20T13:12:56;27.70;58.60
9486;DHT22;4781;48.776;9.200;2023-07-20T13:15:29;27.70;59.30
9486;DHT22;4781;48.776;9.200;2023-07-20T13:17:58;27.80;59.40
9486;DHT22;4781;48.776;9.200;2023-07-20T13:20:26;27.90;60.10
9486;DHT22;4781;48.776;9.200;2023-07-20T13:22:55;27.90;58.60
9486;DHT22;4781;48.776;9.200;2023-07-20T13:25:24;27.90;60.00
9486;DHT22;4781;48.776;9.200;2023-07-20T13:27:54;28.10;58.70
9486;DHT22;4781;48.776;9.200;2023-07-20T13:30:22;28.20;58.80
9486;DHT22;4781;48.776;9.200;2023-07-20T13:32:50;28.20;57.90
9486;DHT22;4781;48.776;9.200;2023-07-20T13:35:19;28.20;59.20
9486;DHT22;4781;48.776;9.200;2023-07-20T13:37:47;28.30;58.00
9486;DHT22;4781;48.776;9.200;2023-07-20T13:40:16;28.30;57.90
9486;DHT22;4781;48.776;9.200;2023-07-20T13:42:46;28.20;57.90
9486;DHT22;4781;48.776;9.200;2023-07-20T13:45:14;28.00;57.90
9486;DHT22;4781;48.776;9.200;2023-07-20T13:47:43;27.80;58.10
9486;DHT22;4781;48.776;9.200;2023-07-20T13:50:11;27.90;58.10
9486;DHT22;4781;48.776;9.200;2023-07-20T13:52:39;27.90;57.90
9486;DHT22;4781;48.776;9.200;2023-07-20T13:55:08;28.00;57.90
9486;DHT22;4781;48.776;9.200;2023-07-20T13:57:36;28.00;58.00
9486;DHT22;4781;48.776;9.200;2023-07-20T14:00:05;28.20;58.70
9486;DHT22;4781;48.776;9.200;2023-07-20T14:02:36;28.20;57.90
9486;DHT22;4781;48.776;9.200;2023-07-20T14:05:05;28.30;57.90
9486;DHT22;4781;48.776;9.200;2023-07-20T14:07:33;28.20;57.40
9486;DHT22;4781;48.776;9.200;2023-07-20T14:10:02;28.20;57.20
9486;DHT22;4781;48.776;9.200;2023-07-20T14:12:31;28.20;58.50
9486;DHT22;4781;48.776;9.200;2023-07-20T14:14:59;28.20;57.80
9486;DHT22;4781;48.776;9.200;2023-07-20T14:17:27;28.40;58.50
9486;DHT22;4781;48.776;9.200;2023-07-20T14:19:56;28.40;57.70
9486;DHT22;4781;48.776;9.200;2023-07-20T14:22:24;28.50;58.00
9486;DHT22;4781;48.776;9.200;2023-07-20T14:24:52;28.50;57.50
9486;DHT22;4781;48.776;9.200;2023-07-20T14:27:21;28.50;57.70
9486;DHT22;4781;48.776;9.200;2023-07-20T14:29:49;28.60;58.10
9486;DHT22;4781;48.776;9.200;2023-07-20T14:32:17;28.60;57.30
9486;DHT22;4781;48.776;9.200;2023-07-20T14:34:46;28.60;56.60
9486;DHT22;4781;48.776;9.200;2023-07-20T14:37:14;28.60;57.00
9486;DHT22;4781;48.776;9.200;2023-07-20T14:39:43;28.60;57.00
9486;DHT22;4781;48.776;9.200;2023-07-20T14:42:11;28.70;57.20
9486;DHT22;4781;48.776;9.200;2023-07-20T14:44:39;28.70;56.60
9486;DHT22;4781;48.776;9.200;2023-07-20T14:47:08;28.60;56.50
9486;DHT22;4781;48.776;9.200;2023-07-20T14:49:36;28.60;56.60
9486;DHT22;4781;48.776;9.200;2023-07-20T14:52:05;28.60;56.70
9486;DHT22;4781;48.776;9.200;2023-07-20T14:54:33;28.60;56.90
9486;DHT22;4781;48.776;9.200;2023-07-20T14:57:04;28.60;56.50
9486;DHT22;4781;48.776;9.200;2023-07-20T14:59:34;28.70;56.50
9486;DHT22;4781;48.776;9.200;2023-07-20T15:02:02;28.50;55.90
9486;DHT22;4781;48.776;9.200;2023-07-20T15:04:31;28.40;55.70
9486;DHT22;4781;48.776;9.200;2023-07-20T15:06:59;28.30;55.90
9486;DHT22;4781;48.776;9.200;2023-07-20T15:09:27;28.20;55.30
9486;DHT22;4781;48.776;9.200;2023-07-20T15:11:56;28.20;55.20
9486;DHT22;4781;48.776;9.200;2023-07-20T15:14:24;28.10;55.40
9486;DHT22;4781;48.776;9.200;2023-07-20T15:16:53;28.00;55.40
9486;DHT22;4781;48.776;9.200;2023-07-20T15:19:22;28.00;55.40
9486;DHT22;4781;48.776;9.200;2023-07-20T15:21:50;27.90;55.00
9486;DHT22;4781;48.776;9.200;2023-07-20T15:24:18;27.90;55.60
9486;DHT22;4781;48.776;9.200;2023-07-20T15:26:47;27.90;55.70
9486;DHT22;4781;48.776;9.200;2023-07-20T15:29:15;28.10;57.00
9486;DHT22;4781;48.776;9.200;2023-07-20T15:31:44;28.10;55.50
9486;DHT22;4781;48.776;9.200;2023-07-20T15:34:12;28.20;56.30
9486;DHT22;4781;48.776;9.200;2023-07-20T15:36:42;28.00;55.70
9486;DHT22;4781;48.776;9.200;2023-07-20T15:39:11;27.90;55.60
9486;DHT22;4781;48.776;9.200;2023-07-20T15:41:39;27.80;55.80
9486;DHT22;4781;48.776;9.200;2023-07-20T15:44:08;27.80;55.30
9486;DHT22;4781;48.776;9.200;2023-07-20T15:49:11;27.60;55.10
9486;DHT22;4781;48.776;9.200;2023-07-20T15:51:40;27.50;55.20
9486;DHT22;4781;48.776;9.200;2023-07-20T15:54:09;27.60;55.40
9486;DHT22;4781;48.776;9.200;2023-07-20T15:56:39;27.40;55.40
9486;DHT22;4781;48.776;9.200;2023-07-20T15:59:10;27.60;55.40
9486;DHT22;4781;48.776;9.200;2023-07-20T16:01:39;27.50;55.90
9486;DHT22;4781;48.776;9.200;2023-07-20T16:04:09;27.50;55.30
9486;DHT22;4781;48.776;9.200;2023-07-20T16:06:38;27.40;55.30
9486;DHT22;4781;48.776;9.200;2023-07-20T16:09:06;27.40;56.30
9486;DHT22;4781;48.776;9.200;2023-07-20T16:11:35;27.20;55.80
9486;DHT22;4781;48.776;9.200;2023-07-20T16:14:06;27.40;56.10
9486;DHT22;4781;48.776;9.200;2023-07-20T16:16:35;27.20;55.20
9486;DHT22;4781;48.776;9.200;2023-07-20T16:19:03;27.20;56.10
9486;DHT22;4781;48.776;9.200;2023-07-20T16:21:32;27.00;55.90
9486;DHT22;4781;48.776;9.200;2023-07-20T16:24:01;26.90;56.30
9486;DHT22;4781;48.776;9.200;2023-07-20T16:26:30;26.80;55.90
9486;DHT22;4781;48.776;9.200;2023-07-20T16:28:58;26.80;56.10
9486;DHT22;4781;48.776;9.200;2023-07-20T16:31:28;26.90;56.40
9486;DHT22;4781;48.776;9.200;2023-07-20T16:33:56;26.80;56.20
9486;DHT22;4781;48.776;9.200;2023-07-20T16:36:25;26.70;56.10